Time;durP1;ratioP1;P1;durP2;ratioP2;P2;SDS_P1;SDS_P2;PMS_P1;PMS_P2;Temp;Humidity;BMP_temperature;BMP_pressure;BME280_temperature;BME280_humidity;BME280_pressure;Samples;Min_cycle;Max_cycle;Signal;HPM_P1;HPM_P2
2022/06/23 00:01:21;;;;;;;25.77;12.48;;;;;;;;;;4997970;28;20058;-88
2022/06/23 00:03:52;;;;;;;24.10;12.93;;;;;;;;;;4994815;28;20023;-88
2022/06/23 00:06:30;;;;;;;16.02;11.15;;;;;;;;;;4995451;28;20035;-87
2022/06/23 00:08:56;;;;;;;22.08;11.88;;;;;;;;;;5006633;28;20014;-88
2022/06/23 00:11:24;;;;;;;17.95;12.02;;;;;;;;;;5009870;28;20041;-88
2022/06/23 00:13:51;;;;;;;22.02;11.50;;;;;;;;;;4995396;28;20048;-88
2022/06/23 00:16:26;;;;;;;15.15;10.35;;;;;;;;;;4994165;28;20061;-87
2022/06/23 00:18:52;;;;;;;17.67;11.00;;;;;;;;;;4995064;28;20557;-87
2022/06/23 00:21:23;;;;;;;20.40;11.38;;;;;;;;;;4994469;28;20030;-87
2022/06/23 00:23:53;;;;;;;18.25;10.77;;;;;;;;;;4993120;28;20517;-88
2022/06/23 00:26:28;;;;;;;18.13;11.63;;;;;;;;;;4995013;28;20022;-87
2022/06/23 00:29:02;;;;;;;19.15;11.40;;;;;;;;;;4993606;28;20030;-88
2022/06/23 00:31:28;;;;;;;18.33;11.23;;;;;;;;;;4994277;28;20485;-87
2022/06/23 00:33:55;;;;;;;20.05;11.02;;;;;;;;;;4993751;28;20033;-88
2022/06/23 00:36:24;;;;;;;19.00;12.07;;;;;;;;;;4993150;28;20483;-88
2022/06/23 00:38:50;;;;;;;17.45;10.98;;;;;;;;;;4994736;28;20434;-87
2022/06/23 00:41:17;;;;;;;18.95;11.55;;;;;;;;;;4993225;28;20540;-87
2022/06/23 00:43:47;;;;;;;16.98;10.65;;;;;;;;;;4994988;28;20023;-87
2022/06/23 00:46:39;;;;;;;15.00;10.13;;;;;;;;;;4994501;28;20027;-89
2022/06/23 00:49:15;;;;;;;17.88;10.75;;;;;;;;;;4990674;28;20053;-88
2022/06/23 00:51:44;;;;;;;16.25;10.77;;;;;;;;;;4994378;28;20037;-87
2022/06/23 00:54:28;;;;;;;21.33;11.35;;;;;;;;;;4993091;28;20026;-87
2022/06/23 00:56:54;;;;;;;15.75;10.48;;;;;;;;;;4992793;28;20088;-87
2022/06/23 00:59:24;;;;;;;13.40;9.60;;;;;;;;;;4993006;28;20041;-87
2022/06/23 01:01:50;;;;;;;14.40;10.32;;;;;;;;;;4993889;28;20030;-87
2022/06/23 01:04:37;;;;;;;17.35;11.60;;;;;;;;;;4993778;28;20026;-87
2022/06/23 01:07:06;;;;;;;15.05;10.13;;;;;;;;;;4994337;28;20026;-87
2022/06/23 01:09:47;;;;;;;34.08;10.43;;;;;;;;;;4994189;28;20034;-87
2022/06/23 01:12:26;;;;;;;15.52;9.23;;;;;;;;;;4992707;28;20482;-87
2022/06/23 01:14:55;;;;;;;16.45;9.23;;;;;;;;;;4993568;28;20038;-87
2022/06/23 01:17:25;;;;;;;16.30;9.45;;;;;;;;;;4992946;28;20029;-87
2022/06/23 01:19:51;;;;;;;14.50;9.85;;;;;;;;;;4994291;28;20042;-87
2022/06/23 01:22:24;;;;;;;15.95;9.80;;;;;;;;;;4993757;28;20035;-87
2022/06/23 01:24:54;;;;;;;28.45;10.38;;;;;;;;;;4994022;28;20034;-87
2022/06/23 01:27:20;;;;;;;21.03;11.27;;;;;;;;;;4994179;28;20113;-87
2022/06/23 01:29:59;;;;;;;19.08;11.35;;;;;;;;;;4993782;28;20161;-88
2022/06/23 01:32:27;;;;;;;19.13;10.95;;;;;;;;;;4993859;28;20291;-88
2022/06/23 01:34:56;;;;;;;29.27;11.50;;;;;;;;;;5009035;28;20031;-88
2022/06/23 01:37:35;;;;;;;19.83;10.82;;;;;;;;;;4993972;28;20042;-88
2022/06/23 01:40:37;;;;;;;19.92;11.25;;;;;;;;;;5008932;28;20018;-87
2022/06/23 01:43:03;;;;;;;;;;;;;;;;;;4953618;29;20125;-87
2022/06/23 01:45:37;;;;;;;18.02;11.38;;;;;;;;;;4985344;28;19941;-88
2022/06/23 01:48:12;;;;;;;27.10;12.32;;;;;;;;;;4994084;28;20437;-88
2022/06/23 01:50:42;;;;;;;20.88;11.52;;;;;;;;;;4993610;28;20545;-87
2022/06/23 01:53:11;;;;;;;20.17;12.38;;;;;;;;;;4992782;28;20031;-88
2022/06/23 01:55:49;;;;;;;26.48;11.52;;;;;;;;;;4993971;28;20042;-88
2022/06/23 01:58:17;;;;;;;24.17;10.93;;;;;;;;;;4993513;28;20022;-87
2022/06/23 02:00:45;;;;;;;35.17;11.23;;;;;;;;;;4993379;28;20057;-87
2022/06/23 02:03:20;;;;;;;21.20;11.45;;;;;;;;;;4996406;28;20050;-88
2022/06/23 02:05:46;;;;;;;15.82;11.05;;;;;;;;;;5003762;28;20033;-87
2022/06/23 02:08:24;;;;;;;15.82;9.93;;;;;;;;;;5007919;28;20069;-87
2022/06/23 02:10:52;;;;;;;15.82;10.15;;;;;;;;;;5003196;28;20021;-86
2022/06/23 02:13:22;;;;;;;14.18;9.18;;;;;;;;;;5001975;28;20080;-87
2022/06/23 02:15:48;;;;;;;16.40;9.10;;;;;;;;;;4993745;28;20026;-87
2022/06/23 02:18:14;;;;;;;20.63;10.02;;;;;;;;;;4992795;28;20030;-88
2022/06/23 02:20:55;;;;;;;18.23;10.15;;;;;;;;;;4977340;28;20078;-87
2022/06/23 02:23:40;;;;;;;26.63;10.00;;;;;;;;;;5004351;28;20031;-87
2022/06/23 02:26:19;;;;;;;17.48;9.18;;;;;;;;;;4992294;28;20030;-87
2022/06/23 02:28:51;;;;;;;16.95;9.63;;;;;;;;;;4995763;28;20030;-88
2022/06/23 02:31:23;;;;;;;18.55;9.75;;;;;;;;;;4996944;28;20030;-87
2022/06/23 02:34:08;;;;;;;22.27;10.25;;;;;;;;;;5003491;28;20058;-87
2022/06/23 02:36:54;;;;;;;34.58;10.13;;;;;;;;;;4998551;28;20030;-87
2022/06/23 02:39:24;;;;;;;19.85;10.98;;;;;;;;;;4996614;28;20031;-87
2022/06/23 02:42:13;;;;;;;31.15;9.98;;;;;;;;;;4996492;28;20031;-87
2022/06/23 02:45:09;;;;;;;16.83;10.07;;;;;;;;;;4991732;28;20026;-87
2022/06/23 02:47:47;;;;;;;20.80;10.68;;;;;;;;;;4955239;28;20051;-87
2022/06/23 02:50:33;;;;;;;24.05;10.25;;;;;;;;;;4977127;28;20037;-87
2022/06/23 02:53:07;;;;;;;27.77;9.07;;;;;;;;;;4965681;28;20039;-87
2022/06/23 02:55:39;;;;;;;27.48;10.30;;;;;;;;;;4997415;28;20026;-87
2022/06/23 02:58:13;;;;;;;22.83;10.75;;;;;;;;;;4996798;28;20038;-87
2022/06/23 03:00:57;;;;;;;30.77;10.82;;;;;;;;;;4996846;28;20660;-87
2022/06/23 03:03:42;;;;;;;28.75;11.07;;;;;;;;;;4996723;28;20058;-87
2022/06/23 03:06:14;;;;;;;14.13;9.50;;;;;;;;;;4997235;28;20077;-88
2022/06/23 03:08:48;;;;;;;28.75;9.57;;;;;;;;;;4997857;28;20050;-87
2022/06/23 03:11:51;;;;;;;23.10;11.13;;;;;;;;;;4996420;28;20033;-87
2022/06/23 03:14:23;;;;;;;16.13;9.82;;;;;;;;;;4997967;28;20077;-88
2022/06/23 03:16:57;;;;;;;23.67;10.55;;;;;;;;;;4997522;28;20026;-87
2022/06/23 03:19:29;;;;;;;17.13;10.77;;;;;;;;;;4997060;28;20026;-88
2022/06/23 03:22:08;;;;;;;17.50;10.73;;;;;;;;;;4996391;28;20133;-89
2022/06/23 03:24:50;;;;;;;22.17;9.82;;;;;;;;;;4996587;28;20399;-88
2022/06/23 03:27:23;;;;;;;13.85;10.05;;;;;;;;;;4996466;28;20057;-87
2022/06/23 03:29:49;;;;;;;21.83;10.88;;;;;;;;;;4997590;28;20106;-87
2022/06/23 03:32:21;;;;;;;22.00;11.55;;;;;;;;;;4997086;28;20069;-87
2022/06/23 03:35:00;;;;;;;26.17;10.75;;;;;;;;;;4997231;28;20026;-87
2022/06/23 03:37:29;;;;;;;24.13;10.98;;;;;;;;;;4995384;28;20053;-88
2022/06/23 03:43:01;;;;;;;26.63;11.70;;;;;;;;;;4995662;28;20060;-88
2022/06/23 03:45:40;;;;;;;21.77;10.98;;;;;;;;;;4995106;28;20447;-88
2022/06/23 03:48:12;;;;;;;23.42;11.60;;;;;;;;;;4994491;28;20026;-87
2022/06/23 03:50:39;;;;;;;36.17;12.02;;;;;;;;;;4994835;28;20026;-87
2022/06/23 03:53:12;;;;;;;35.42;11.60;;;;;;;;;;4995369;28;20031;-87
2022/06/23 03:56:08;;;;;;;27.50;11.68;;;;;;;;;;4995617;28;20114;-88
2022/06/23 03:58:54;;;;;;;32.33;11.73;;;;;;;;;;4982007;28;20077;-87
2022/06/23 04:01:26;;;;;;;42.70;13.88;;;;;;;;;;4993789;28;20050;-87
2022/06/23 04:04:13;;;;;;;42.80;13.70;;;;;;;;;;5017146;28;20053;-86
2022/06/23 04:06:40;;;;;;;38.17;15.15;;;;;;;;;;4994092;28;20053;-88
2022/06/23 04:09:25;;;;;;;60.65;17.13;;;;;;;;;;4994837;28;20030;-87
2022/06/23 04:11:57;;;;;;;57.15;18.02;;;;;;;;;;4993541;28;20478;-87
2022/06/23 04:14:42;;;;;;;66.20;18.70;;;;;;;;;;4995430;28;20039;-88
2022/06/23 04:17:21;;;;;;;65.22;18.50;;;;;;;;;;4993208;28;20034;-86
2022/06/23 04:19:48;;;;;;;48.30;18.33;;;;;;;;;;4994783;28;20026;-87
2022/06/23 04:22:29;;;;;;;75.70;20.23;;;;;;;;;;5016175;23;20433;-89
2022/06/23 04:24:58;;;;;;;55.37;20.70;;;;;;;;;;5013645;28;20374;-89
2022/06/23 04:27:30;;;;;;;51.58;19.75;;;;;;;;;;4996685;28;20268;-91
2022/06/23 04:29:57;;;;;;;68.90;20.70;;;;;;;;;;4992856;28;20026;-90
2022/06/23 04:32:28;;;;;;;65.30;18.77;;;;;;;;;;4991290;28;20022;-90
2022/06/23 04:34:58;;;;;;;39.70;17.45;;;;;;;;;;4977119;28;20545;-91
2022/06/23 04:37:33;;;;;;;41.92;16.88;;;;;;;;;;4976722;28;20133;-90
2022/06/23 04:40:05;;;;;;;46.50;16.63;;;;;;;;;;4994433;28;20245;-91
2022/06/23 04:42:32;;;;;;;43.58;17.95;;;;;;;;;;4994288;28;20022;-90
2022/06/23 04:45:18;;;;;;;46.05;18.13;;;;;;;;;;4976981;28;20058;-91
2022/06/23 04:47:47;;;;;;;50.88;19.27;;;;;;;;;;4977663;28;20038;-89
2022/06/23 04:50:15;;;;;;;44.60;20.15;;;;;;;;;;4976428;28;20030;-90
2022/06/23 04:52:44;;;;;;;56.88;19.45;;;;;;;;;;4976875;28;20022;-90
2022/06/23 04:55:30;;;;;;;48.15;20.60;;;;;;;;;;4994185;28;20030;-91
2022/06/23 04:58:00;;;;;;;56.10;19.48;;;;;;;;;;5012983;28;20033;-90
2022/06/23 05:00:32;;;;;;;44.47;19.70;;;;;;;;;;4995483;28;20030;-91
2022/06/23 05:02:57;;;;;;;;;;;;;;;;;;4996339;28;20506;-91
2022/06/23 05:05:29;;;;;;;39.92;18.15;;;;;;;;;;4994286;28;19921;-90
2022/06/23 05:08:13;;;;;;;45.22;19.73;;;;;;;;;;5013470;28;20108;-89
2022/06/23 05:10:42;;;;;;;49.25;19.08;;;;;;;;;;4995607;28;20029;-90
2022/06/23 05:13:12;;;;;;;54.83;21.40;;;;;;;;;;4995815;28;20029;-92
2022/06/23 05:15:49;;;;;;;42.60;20.50;;;;;;;;;;4981254;28;20126;-91
2022/06/23 05:18:19;;;;;;;57.80;21.67;;;;;;;;;;4976102;28;20058;-89
2022/06/23 05:20:48;;;;;;;52.55;21.58;;;;;;;;;;4990564;28;20478;-90
2022/06/23 05:23:21;;;;;;;53.50;22.70;;;;;;;;;;5013200;28;20056;-90
2022/06/23 05:25:48;;;;;;;51.95;22.80;;;;;;;;;;4995713;28;20014;-89
2022/06/23 05:28:17;;;;;;;64.68;24.88;;;;;;;;;;5013432;28;20026;-89
2022/06/23 05:30:54;;;;;;;54.17;23.25;;;;;;;;;;5013029;28;20037;-91
2022/06/23 05:33:28;;;;;;;54.45;23.88;;;;;;;;;;4995075;28;20095;-91
2022/06/23 05:35:58;;;;;;;57.33;24.00;;;;;;;;;;4995187;28;20126;-91
2022/06/23 05:38:30;;;;;;;51.65;23.50;;;;;;;;;;5004721;28;20026;-92
2022/06/23 05:41:02;;;;;;;50.67;23.20;;;;;;;;;;5009055;28;20026;-92
2022/06/23 05:43:30;;;;;;;53.47;22.92;;;;;;;;;;5009832;28;20025;-92
2022/06/23 05:46:00;;;;;;;47.78;22.13;;;;;;;;;;4997222;28;20026;-92
2022/06/23 05:48:34;;;;;;;45.05;22.15;;;;;;;;;;5002405;28;20033;-91
2022/06/23 05:51:14;;;;;;;47.05;22.40;;;;;;;;;;4995674;28;20121;-89
2022/06/23 05:53:59;;;;;;;46.92;21.95;;;;;;;;;;4995220;28;20037;-89
2022/06/23 05:56:35;;;;;;;58.33;22.85;;;;;;;;;;4976866;28;20038;-88
2022/06/23 06:05:01;;;;;;;45.97;22.05;;;;;;;;;;5013141;28;20083;-89
2022/06/23 06:07:35;;;;;;;42.67;21.42;;;;;;;;;;4995429;28;20091;-90
2022/06/23 06:10:03;;;;;;;43.33;19.38;;;;;;;;;;5008126;28;20045;-88
2022/06/23 06:12:51;;;;;;;36.75;19.45;;;;;;;;;;4994775;28;20490;-90
2022/06/23 06:15:27;;;;;;;45.45;21.25;;;;;;;;;;4995445;28;20034;-90
2022/06/23 06:24:40;;;;;;;31.33;17.15;;;;;;;;;;4930956;29;20060;-90
2022/06/23 06:27:13;;;;;;;31.90;17.63;;;;;;;;;;4994168;28;20649;-90
2022/06/23 06:29:46;;;;;;;35.08;16.45;;;;;;;;;;4995809;28;20431;-88
2022/06/23 06:32:33;;;;;;;29.65;15.95;;;;;;;;;;4995426;28;20030;-88
2022/06/23 06:35:02;;;;;;;30.75;14.88;;;;;;;;;;5013180;28;20037;-88
2022/06/23 06:37:36;;;;;;;32.47;15.30;;;;;;;;;;5012651;28;20490;-89
2022/06/23 06:40:03;;;;;;;22.95;13.38;;;;;;;;;;5012791;28;20080;-90
2022/06/23 06:47:36;;;;;;;23.98;13.00;;;;;;;;;;4991309;28;20042;-88
2022/06/23 06:50:08;;;;;;;24.80;14.73;;;;;;;;;;4994472;28;20022;-92
2022/06/23 06:52:34;;;;;;;27.95;13.60;;;;;;;;;;4976176;28;20038;-90
2022/06/23 06:55:04;;;;;;;31.42;13.70;;;;;;;;;;4997145;28;20027;-90
2022/06/23 06:57:40;;;;;;;21.95;11.65;;;;;;;;;;5014333;28;20064;-93
2022/06/23 07:00:13;;;;;;;24.67;11.68;;;;;;;;;;5014401;28;20018;-90
2022/06/23 07:02:47;;;;;;;16.77;10.95;;;;;;;;;;5003734;28;20394;-87
2022/06/23 07:05:19;;;;;;;19.05;10.18;;;;;;;;;;4997859;28;20031;-90
2022/06/23 07:07:49;;;;;;;20.08;10.45;;;;;;;;;;4993131;28;20050;-91
2022/06/23 07:10:15;;;;;;;19.38;9.60;;;;;;;;;;4992837;28;20026;-88
2022/06/23 07:12:45;;;;;;;17.58;8.82;;;;;;;;;;4976561;28;20026;-87
2022/06/23 07:20:53;;;;;;;17.40;8.07;;;;;;;;;;5922509;22;20051;-90
2022/06/23 07:26:42;;;;;;;12.63;6.25;;;;;;;;;;4977705;28;20029;-91
2022/06/23 07:29:15;;;;;;;10.40;5.55;;;;;;;;;;4956055;28;20497;-93
2022/06/23 07:31:58;;;;;;;16.02;5.65;;;;;;;;;;4955996;29;20034;-88
2022/06/23 07:34:26;;;;;;;13.82;4.85;;;;;;;;;;4957557;28;20039;-91
2022/06/23 07:46:19;;;;;;;11.45;3.97;;;;;;;;;;4916190;29;20034;-88
2022/06/23 07:48:46;;;;;;;9.98;3.75;;;;;;;;;;4956160;28;20550;-85
2022/06/23 07:51:13;;;;;;;13.40;3.75;;;;;;;;;;4955171;28;20512;-87
2022/06/23 07:53:46;;;;;;;14.02;4.70;;;;;;;;;;4955459;28;20082;-87
2022/06/23 07:56:15;;;;;;;9.50;3.33;;;;;;;;;;4958847;28;20035;-89
2022/06/23 07:58:46;;;;;;;11.63;3.60;;;;;;;;;;4973612;28;20031;-88
2022/06/23 08:01:22;;;;;;;14.35;4.13;;;;;;;;;;4964869;28;20023;-86
2022/06/23 08:03:52;;;;;;;8.30;3.67;;;;;;;;;;4957336;28;20671;-89
2022/06/23 08:06:21;;;;;;;11.35;3.65;;;;;;;;;;4957122;28;20488;-86
2022/06/23 08:08:48;;;;;;;10.52;3.20;;;;;;;;;;4957209;28;20114;-89
2022/06/23 08:23:39;;;;;;;8.55;3.15;;;;;;;;;;5170734;23;20474;-89
2022/06/23 08:26:07;;;;;;;13.70;3.85;;;;;;;;;;5016543;28;20495;-88
2022/06/23 08:28:34;;;;;;;8.85;3.72;;;;;;;;;;5034731;28;20033;-88
2022/06/23 08:31:00;;;;;;;11.02;3.42;;;;;;;;;;5034165;28;20461;-89
2022/06/23 08:33:27;;;;;;;20.25;4.03;;;;;;;;;;5016855;28;20029;-88
2022/06/23 08:35:56;;;;;;;13.23;4.07;;;;;;;;;;5017069;28;20026;-87
2022/06/23 08:47:22;;;;;;;15.13;5.35;;;;;;;;;;5014173;28;20080;-89
2022/06/23 08:49:56;;;;;;;15.32;3.10;;;;;;;;;;5014724;28;20030;-89
2022/06/23 08:52:28;;;;;;;16.35;3.40;;;;;;;;;;5013001;28;20029;-88
2022/06/23 08:54:59;;;;;;;10.40;3.58;;;;;;;;;;4997054;28;20026;-88
2022/06/23 08:57:29;;;;;;;9.23;3.28;;;;;;;;;;5013437;28;20466;-88
2022/06/23 09:00:06;;;;;;;11.70;3.42;;;;;;;;;;5014204;28;20445;-88
2022/06/23 09:02:43;;;;;;;11.57;3.78;;;;;;;;;;4996225;28;20018;-89
2022/06/23 09:05:24;;;;;;;9.77;3.15;;;;;;;;;;4996320;28;20037;-88
2022/06/23 09:08:10;;;;;;;11.15;3.55;;;;;;;;;;4997152;28;20482;-86
2022/06/23 09:10:59;;;;;;;12.20;3.53;;;;;;;;;;5013665;28;20502;-90
2022/06/23 09:13:37;;;;;;;13.23;3.60;;;;;;;;;;4996550;28;20112;-89
2022/06/23 09:16:16;;;;;;;11.13;3.28;;;;;;;;;;4996441;28;20099;-89
2022/06/23 09:18:45;;;;;;;12.25;3.10;;;;;;;;;;4996237;28;20116;-89
2022/06/23 09:21:14;;;;;;;10.70;3.33;;;;;;;;;;4992530;28;20022;-89
2022/06/23 09:23:58;;;;;;;11.73;3.17;;;;;;;;;;4994253;28;20050;-88
2022/06/23 09:26:35;;;;;;;9.63;2.65;;;;;;;;;;4992848;28;20026;-89
2022/06/23 09:29:10;;;;;;;8.23;2.67;;;;;;;;;;4994010;28;20107;-89
2022/06/23 09:31:39;;;;;;;11.13;3.20;;;;;;;;;;4976490;28;20026;-88
2022/06/23 09:34:16;;;;;;;9.85;2.88;;;;;;;;;;4991797;28;20018;-89
2022/06/23 09:37:02;;;;;;;11.55;3.08;;;;;;;;;;4993291;28;20030;-88
2022/06/23 09:39:31;;;;;;;7.88;2.90;;;;;;;;;;4965247;28;20030;-88
2022/06/23 09:42:13;;;;;;;20.30;4.45;;;;;;;;;;4995545;28;20030;-89
2022/06/23 09:44:59;;;;;;;16.42;3.20;;;;;;;;;;5013567;28;20018;-89
2022/06/23 09:47:47;;;;;;;14.18;3.15;;;;;;;;;;4995926;28;20525;-88
2022/06/23 09:50:32;;;;;;;15.45;3.10;;;;;;;;;;4995424;28;20029;-89
2022/06/23 09:53:09;;;;;;;10.57;3.20;;;;;;;;;;4995660;28;20101;-89
2022/06/23 09:55:53;;;;;;;12.27;3.65;;;;;;;;;;5013515;28;20049;-89
2022/06/23 09:58:19;;;;;;;9.88;3.30;;;;;;;;;;5012280;28;20494;-90
2022/06/23 10:00:48;;;;;;;17.67;3.47;;;;;;;;;;4995349;28;20402;-90
2022/06/23 10:03:29;;;;;;;10.32;2.53;;;;;;;;;;5013073;28;20028;-90
2022/06/23 10:06:01;;;;;;;16.83;3.00;;;;;;;;;;4995291;28;20057;-90
2022/06/23 10:09:08;;;;;;;10.60;3.15;;;;;;;;;;5013217;28;20037;-92
2022/06/23 10:11:51;;;;;;;8.35;3.25;;;;;;;;;;4992448;28;20034;-90
2022/06/23 10:14:26;;;;;;;7.65;3.17;;;;;;;;;;4993703;28;20058;-89
2022/06/23 10:16:55;;;;;;;12.27;2.45;;;;;;;;;;5007417;28;20029;-90
2022/06/23 10:19:30;;;;;;;14.77;2.72;;;;;;;;;;4994771;28;20096;-88
2022/06/23 10:22:15;;;;;;;10.15;2.80;;;;;;;;;;5027458;22;20022;-89
2022/06/23 10:24:59;;;;;;;10.45;2.92;;;;;;;;;;5031085;28;20116;-92
2022/06/23 10:27:32;;;;;;;12.27;3.00;;;;;;;;;;5014219;28;20106;-90
2022/06/23 10:29:57;;;;;;;16.02;3.47;;;;;;;;;;5032187;28;20053;-91
2022/06/23 10:32:33;;;;;;;12.65;2.85;;;;;;;;;;5013594;28;20072;-91
2022/06/23 10:35:16;;;;;;;9.32;2.78;;;;;;;;;;5015406;28;20105;-93
2022/06/23 10:38:17;;;;;;;13.23;3.13;;;;;;;;;;5038445;28;20029;-94
2022/06/23 10:41:16;;;;;;;9.68;2.20;;;;;;;;;;5016506;28;20063;-93
2022/06/23 10:44:03;;;;;;;12.00;2.67;;;;;;;;;;5032795;28;20039;-91
2022/06/23 10:46:35;;;;;;;15.90;3.60;;;;;;;;;;5031497;28;20018;-92
2022/06/23 10:49:09;;;;;;;10.60;3.10;;;;;;;;;;5035755;28;20018;-91
2022/06/23 10:51:48;;;;;;;11.30;3.00;;;;;;;;;;5018217;28;20053;-92
2022/06/23 10:54:17;;;;;;;10.50;2.80;;;;;;;;;;5018834;28;20040;-91
2022/06/23 10:57:02;;;;;;;13.10;2.90;;;;;;;;;;5019854;28;20056;-92
2022/06/23 10:59:43;;;;;;;15.00;3.13;;;;;;;;;;5037564;28;20432;-91
2022/06/23 11:02:21;;;;;;;15.00;2.85;;;;;;;;;;5019711;28;20076;-92
2022/06/23 11:05:09;;;;;;;8.63;2.35;;;;;;;;;;5042688;28;20045;-93
2022/06/23 11:07:54;;;;;;;13.40;3.25;;;;;;;;;;5042423;28;20093;-95
2022/06/23 11:10:45;;;;;;;9.90;2.60;;;;;;;;;;5059548;28;20094;-95
2022/06/23 11:13:11;;;;;;;;;;;;;;;;;;5042339;28;20025;-95
2022/06/23 11:15:56;;;;;;;13.52;2.63;;;;;;;;;;5045712;28;19984;-91
2022/06/23 11:18:35;;;;;;;8.75;2.45;;;;;;;;;;5018542;28;20039;-88
2022/06/23 11:21:01;;;;;;;11.57;2.90;;;;;;;;;;4998686;28;20026;-89
2022/06/23 11:23:49;;;;;;;13.45;2.55;;;;;;;;;;4997520;28;20030;-89
2022/06/23 11:26:31;;;;;;;13.02;2.78;;;;;;;;;;5015159;28;20026;-89
2022/06/23 11:29:04;;;;;;;9.10;2.60;;;;;;;;;;5017471;28;20033;-87
2022/06/23 11:31:33;;;;;;;13.45;2.65;;;;;;;;;;5017484;28;20026;-89
2022/06/23 11:34:05;;;;;;;16.17;3.80;;;;;;;;;;5035333;28;20034;-88
2022/06/23 11:36:37;;;;;;;10.40;2.50;;;;;;;;;;5016969;28;20026;-89
2022/06/23 11:39:18;;;;;;;11.85;2.83;;;;;;;;;;5035302;28;20095;-89
2022/06/23 11:41:44;;;;;;;;;;;;;;;;;;5017710;28;20045;-89
2022/06/23 11:44:13;;;;;;;13.85;2.80;;;;;;;;;;5017407;28;19905;-89
2022/06/23 11:46:54;;;;;;;17.00;2.70;;;;;;;;;;5016261;28;20022;-88
2022/06/23 11:49:34;;;;;;;9.68;2.97;;;;;;;;;;5017095;28;20030;-86
2022/06/23 11:52:07;;;;;;;15.90;3.38;;;;;;;;;;5016909;28;20028;-89
2022/06/23 11:54:42;;;;;;;9.75;3.17;;;;;;;;;;5035073;28;20026;-88
2022/06/23 11:57:14;;;;;;;16.30;2.85;;;;;;;;;;5016977;28;20018;-87
2022/06/23 12:00:10;;;;;;;6.50;2.33;;;;;;;;;;5015959;28;20025;-90
2022/06/23 12:02:54;;;;;;;9.90;2.30;;;;;;;;;;5034771;28;20083;-88
2022/06/23 12:05:20;;;;;;;13.45;3.17;;;;;;;;;;5022248;28;20010;-91
2022/06/23 12:07:46;;;;;;;8.40;2.30;;;;;;;;;;5006850;28;20053;-90
2022/06/23 12:10:15;;;;;;;10.68;2.35;;;;;;;;;;4977382;28;20080;-88
2022/06/23 12:12:49;;;;;;;9.20;2.55;;;;;;;;;;4977497;28;20052;-89
2022/06/23 12:15:20;;;;;;;11.98;2.55;;;;;;;;;;4994627;28;20486;-90
2022/06/23 12:17:46;;;;;;;;;;;;;;;;;;4976642;28;20042;-88
2022/06/23 12:20:35;;;;;;;12.85;2.60;;;;;;;;;;5014479;28;20341;-89
2022/06/23 12:23:01;;;;;;;7.97;2.55;;;;;;;;;;4976469;28;20120;-91
2022/06/23 12:25:47;;;;;;;9.63;2.10;;;;;;;;;;4977113;28;20686;-90
2022/06/23 12:28:35;;;;;;;13.07;2.63;;;;;;;;;;5003702;28;20025;-90
2022/06/23 12:31:07;;;;;;;9.13;2.92;;;;;;;;;;5008453;28;20511;-91
2022/06/23 12:33:59;;;;;;;8.02;2.20;;;;;;;;;;5002861;28;20070;-89
2022/06/23 12:36:36;;;;;;;12.82;2.35;;;;;;;;;;4973732;28;20379;-90
2022/06/23 12:39:05;;;;;;;10.35;2.40;;;;;;;;;;4994314;28;20026;-90
2022/06/23 12:41:42;;;;;;;9.70;2.15;;;;;;;;;;4993913;28;20059;-91
2022/06/23 12:44:26;;;;;;;15.40;2.50;;;;;;;;;;4993463;28;20034;-91
2022/06/23 12:47:11;;;;;;;8.20;2.30;;;;;;;;;;4976912;28;20032;-90
2022/06/23 12:49:55;;;;;;;7.30;2.72;;;;;;;;;;4984577;28;20565;-89
2022/06/23 12:52:35;;;;;;;10.77;2.50;;;;;;;;;;4998597;28;20414;-88
2022/06/23 12:55:19;;;;;;;8.17;1.97;;;;;;;;;;4976160;28;20026;-90
2022/06/23 12:57:51;;;;;;;8.57;2.30;;;;;;;;;;5010661;28;20030;-87
2022/06/23 13:00:21;;;;;;;11.63;2.28;;;;;;;;;;4995659;28;20118;-88
2022/06/23 13:02:53;;;;;;;14.38;2.50;;;;;;;;;;5013970;28;20386;-89
2022/06/23 13:05:29;;;;;;;11.02;3.28;;;;;;;;;;5011322;28;20114;-89
2022/06/23 13:07:58;;;;;;;10.73;2.42;;;;;;;;;;4993931;28;20026;-89
2022/06/23 13:10:27;;;;;;;13.48;2.80;;;;;;;;;;5009099;28;20029;-89
2022/06/23 13:13:14;;;;;;;13.88;3.03;;;;;;;;;;4993566;28;20084;-90
2022/06/23 13:15:53;;;;;;;15.50;2.88;;;;;;;;;;4993576;28;20038;-89
2022/06/23 13:18:20;;;;;;;15.20;2.17;;;;;;;;;;4993265;28;20030;-87
2022/06/23 13:20:48;;;;;;;17.13;2.58;;;;;;;;;;5026746;28;20030;-86
2022/06/23 13:23:21;;;;;;;7.18;2.35;;;;;;;;;;5015071;28;20033;-89
2022/06/23 13:25:51;;;;;;;8.70;2.75;;;;;;;;;;5033195;28;20021;-89
2022/06/23 13:28:24;;;;;;;10.57;2.70;;;;;;;;;;5008396;28;20124;-89
2022/06/23 13:30:51;;;;;;;9.90;2.15;;;;;;;;;;4993150;28;20039;-89
2022/06/23 13:33:24;;;;;;;12.70;3.38;;;;;;;;;;4993425;28;20492;-88
2022/06/23 13:36:01;;;;;;;9.82;2.63;;;;;;;;;;4993442;28;20510;-91
2022/06/23 13:38:33;;;;;;;13.15;3.15;;;;;;;;;;4993187;28;20383;-90
2022/06/23 13:41:05;;;;;;;11.32;2.78;;;;;;;;;;4994329;28;20048;-89
2022/06/23 13:43:37;;;;;;;7.88;2.55;;;;;;;;;;4975869;28;20050;-89
2022/06/23 13:46:08;;;;;;;11.10;2.63;;;;;;;;;;4996707;28;20382;-88
2022/06/23 13:48:40;;;;;;;9.70;2.83;;;;;;;;;;4995213;28;20125;-89
2022/06/23 13:51:22;;;;;;;9.93;2.55;;;;;;;;;;4995412;28;20112;-89
2022/06/23 13:54:09;;;;;;;10.98;2.85;;;;;;;;;;4995390;28;20076;-89
2022/06/23 13:56:37;;;;;;;13.00;2.67;;;;;;;;;;4995221;28;20120;-88
2022/06/23 13:59:06;;;;;;;12.20;2.85;;;;;;;;;;5013930;28;20022;-89
2022/06/23 14:02:14;;;;;;;10.43;2.20;;;;;;;;;;4993085;28;20045;-90
2022/06/23 14:04:47;;;;;;;9.38;2.70;;;;;;;;;;4933683;29;20028;-90
2022/06/23 14:07:22;;;;;;;6.22;2.40;;;;;;;;;;4921516;29;20401;-89
2022/06/23 14:10:18;;;;;;;9.73;2.92;;;;;;;;;;4945752;28;20048;-89
2022/06/23 14:13:11;;;;;;;9.18;2.53;;;;;;;;;;4990193;28;20018;-91
2022/06/23 14:15:52;;;;;;;13.27;3.00;;;;;;;;;;4993013;28;20398;-88
2022/06/23 14:18:37;;;;;;;7.28;2.50;;;;;;;;;;4987494;28;20033;-92
2022/06/23 14:21:05;;;;;;;14.57;3.08;;;;;;;;;;5000783;28;20068;-91
2022/06/23 14:23:42;;;;;;;11.38;2.22;;;;;;;;;;5011985;28;20482;-90
2022/06/23 14:26:08;;;;;;;9.65;2.30;;;;;;;;;;4994598;28;20038;-89
2022/06/23 14:28:46;;;;;;;12.75;3.05;;;;;;;;;;5029257;28;20469;-91
2022/06/23 14:31:12;;;;;;;11.48;2.92;;;;;;;;;;5003738;28;20031;-89
2022/06/23 14:33:38;;;;;;;14.10;3.20;;;;;;;;;;4975043;28;20030;-88
2022/06/23 14:36:08;;;;;;;9.07;2.67;;;;;;;;;;4978827;28;20022;-90
2022/06/23 14:38:41;;;;;;;12.07;2.92;;;;;;;;;;4994200;28;20030;-89
2022/06/23 14:41:13;;;;;;;13.43;2.65;;;;;;;;;;5012227;28;20466;-90
2022/06/23 14:43:39;;;;;;;13.20;3.08;;;;;;;;;;5008208;28;20027;-89
2022/06/23 14:46:14;;;;;;;13.38;2.60;;;;;;;;;;4985593;28;20021;-89
2022/06/23 14:48:43;;;;;;;14.30;3.00;;;;;;;;;;4992164;28;20033;-88
2022/06/23 14:51:20;;;;;;;14.43;3.17;;;;;;;;;;4991495;28;20169;-89
2022/06/23 14:53:49;;;;;;;7.22;2.42;;;;;;;;;;5011903;28;20033;-90
2022/06/23 14:56:18;;;;;;;12.30;2.70;;;;;;;;;;4994356;28;20022;-92
2022/06/23 14:59:14;;;;;;;13.20;3.05;;;;;;;;;;4994623;28;20026;-91
2022/06/23 15:02:08;;;;;;;16.60;2.90;;;;;;;;;;4991741;28;20029;-91
2022/06/23 15:04:37;;;;;;;8.90;2.33;;;;;;;;;;4976208;28;20147;-91
2022/06/23 15:07:35;;;;;;;9.48;2.90;;;;;;;;;;4981690;28;20026;-94
2022/06/23 15:10:11;;;;;;;7.93;2.63;;;;;;;;;;4975673;28;20193;-94
2022/06/23 15:12:46;;;;;;;17.27;3.53;;;;;;;;;;5000308;28;20082;-94
2022/06/23 15:15:12;;;;;;;10.35;3.17;;;;;;;;;;5009805;28;20077;-91
2022/06/23 15:17:48;;;;;;;10.77;2.85;;;;;;;;;;4994736;28;20529;-91
2022/06/23 15:20:18;;;;;;;8.48;2.80;;;;;;;;;;5024092;28;20068;-91
2022/06/23 15:25:46;;;;;;;13.38;2.72;;;;;;;;;;5011942;28;20041;-92
2022/06/23 15:28:28;;;;;;;13.18;2.33;;;;;;;;;;4974421;28;20046;-91
2022/06/23 15:31:02;;;;;;;13.90;3.15;;;;;;;;;;4986470;28;20025;-92
2022/06/23 15:33:31;;;;;;;7.43;2.63;;;;;;;;;;5032395;28;20022;-91
2022/06/23 15:36:10;;;;;;;11.43;2.97;;;;;;;;;;5034666;28;20393;-92
2022/06/23 15:38:42;;;;;;;11.02;3.15;;;;;;;;;;5014770;28;20485;-89
2022/06/23 15:41:17;;;;;;;11.20;3.05;;;;;;;;;;5003812;28;20022;-91
2022/06/23 15:43:56;;;;;;;10.63;3.45;;;;;;;;;;4979053;28;20066;-91
2022/06/23 15:46:22;;;;;;;14.07;4.00;;;;;;;;;;4978890;28;20019;-90
2022/06/23 15:49:01;;;;;;;11.73;2.75;;;;;;;;;;4977949;28;20371;-91
2022/06/23 15:51:44;;;;;;;5.60;2.38;;;;;;;;;;4995837;28;20030;-92
2022/06/23 15:54:46;;;;;;;9.93;3.20;;;;;;;;;;4978674;28;20031;-91
2022/06/23 15:57:18;;;;;;;10.00;3.08;;;;;;;;;;4968388;28;20035;-92
2022/06/23 15:59:44;;;;;;;12.25;3.55;;;;;;;;;;4995461;28;20316;-91
2022/06/23 16:02:13;;;;;;;10.15;2.80;;;;;;;;;;4991968;28;20041;-90
2022/06/23 16:04:49;;;;;;;10.93;2.35;;;;;;;;;;5015161;28;20105;-90
2022/06/23 16:07:18;;;;;;;13.20;2.88;;;;;;;;;;4997725;28;20385;-91
2022/06/23 16:09:50;;;;;;;9.70;2.45;;;;;;;;;;5013984;28;20053;-91
2022/06/23 16:12:22;;;;;;;11.80;2.60;;;;;;;;;;5003169;28;20101;-90
2022/06/23 16:15:04;;;;;;;13.40;2.90;;;;;;;;;;4978543;28;20026;-92
2022/06/23 16:17:39;;;;;;;15.30;3.08;;;;;;;;;;5013039;28;20489;-89